sensor_id;sensor_type;location;lat;lon;timestamp;P1;durP1;ratioP1;P2;durP2;ratioP2
7027;SDS011;3555;53.248;10.336;2023-02-27T00:02:23;4.47;;;2.97;;
7027;SDS011;3555;53.248;10.336;2023-02-27T00:04:50;7.07;;;2.60;;
7027;SDS011;3555;53.248;10.336;2023-02-27T00:07:18;5.47;;;2.63;;
7027;SDS011;3555;53.248;10.336;2023-02-27T00:09:50;3.53;;;2.63;;
7027;SDS011;3555;53.248;10.336;2023-02-27T00:12:17;4.93;;;2.80;;
7027;SDS011;3555;53.248;10.336;2023-02-27T00:14:46;4.13;;;2.60;;
7027;SDS011;3555;53.248;10.336;2023-02-27T00:17:13;5.93;;;2.57;;
7027;SDS011;3555;53.248;10.336;2023-02-27T00:19:40;3.17;;;2.37;;
7027;SDS011;3555;53.248;10.336;2023-02-27T00:22:07;2.97;;;2.50;;
7027;SDS011;3555;53.248;10.336;2023-02-27T00:24:34;4.53;;;2.70;;
7027;SDS011;3555;53.248;10.336;2023-02-27T00:27:01;7.50;;;2.90;;
7027;SDS011;3555;53.248;10.336;2023-02-27T00:29:28;6.43;;;2.87;;
7027;SDS011;3555;53.248;10.336;2023-02-27T00:31:56;5.87;;;2.50;;
7027;SDS011;3555;53.248;10.336;2023-02-27T00:34:23;3.93;;;2.37;;
7027;SDS011;3555;53.248;10.336;2023-02-27T00:36:50;5.23;;;2.70;;
7027;SDS011;3555;53.248;10.336;2023-02-27T00:39:16;6.90;;;2.60;;
7027;SDS011;3555;53.248;10.336;2023-02-27T00:41:43;3.90;;;2.60;;
7027;SDS011;3555;53.248;10.336;2023-02-27T00:44:10;5.03;;;2.60;;
7027;SDS011;3555;53.248;10.336;2023-02-27T00:46:37;5.53;;;3.00;;
7027;SDS011;3555;53.248;10.336;2023-02-27T00:49:05;3.73;;;2.77;;
7027;SDS011;3555;53.248;10.336;2023-02-27T00:51:32;5.70;;;2.60;;
7027;SDS011;3555;53.248;10.336;2023-02-27T00:53:59;5.57;;;2.90;;
7027;SDS011;3555;53.248;10.336;2023-02-27T00:56:26;5.83;;;3.20;;
7027;SDS011;3555;53.248;10.336;2023-02-27T00:58:52;4.30;;;2.93;;
7027;SDS011;3555;53.248;10.336;2023-02-27T01:01:19;3.90;;;3.00;;
7027;SDS011;3555;53.248;10.336;2023-02-27T01:03:46;5.27;;;2.87;;
7027;SDS011;3555;53.248;10.336;2023-02-27T01:06:14;5.23;;;3.20;;
7027;SDS011;3555;53.248;10.336;2023-02-27T01:08:41;4.20;;;2.80;;
7027;SDS011;3555;53.248;10.336;2023-02-27T01:11:08;6.43;;;3.27;;
7027;SDS011;3555;53.248;10.336;2023-02-27T01:13:35;6.37;;;3.17;;
7027;SDS011;3555;53.248;10.336;2023-02-27T01:16:02;4.93;;;2.67;;
7027;SDS011;3555;53.248;10.336;2023-02-27T01:18:29;6.20;;;3.23;;
7027;SDS011;3555;53.248;10.336;2023-02-27T01:20:56;6.77;;;3.03;;
7027;SDS011;3555;53.248;10.336;2023-02-27T01:23:25;7.00;;;2.93;;
7027;SDS011;3555;53.248;10.336;2023-02-27T01:25:51;6.17;;;3.73;;
7027;SDS011;3555;53.248;10.336;2023-02-27T01:28:18;5.07;;;3.13;;
7027;SDS011;3555;53.248;10.336;2023-02-27T01:30:45;6.37;;;3.40;;
7027;SDS011;3555;53.248;10.336;2023-02-27T01:33:12;8.00;;;3.20;;
7027;SDS011;3555;53.248;10.336;2023-02-27T01:35:39;5.30;;;3.17;;
7027;SDS011;3555;53.248;10.336;2023-02-27T01:38:06;7.33;;;3.40;;
7027;SDS011;3555;53.248;10.336;2023-02-27T01:40:35;9.40;;;3.83;;
7027;SDS011;3555;53.248;10.336;2023-02-27T01:43:02;8.73;;;3.80;;
7027;SDS011;3555;53.248;10.336;2023-02-27T01:45:36;5.73;;;3.40;;
7027;SDS011;3555;53.248;10.336;2023-02-27T01:48:07;5.07;;;3.50;;
7027;SDS011;3555;53.248;10.336;2023-02-27T01:50:38;6.13;;;3.43;;
7027;SDS011;3555;53.248;10.336;2023-02-27T01:53:10;5.90;;;3.03;;
7027;SDS011;3555;53.248;10.336;2023-02-27T01:55:40;5.63;;;3.00;;
7027;SDS011;3555;53.248;10.336;2023-02-27T01:58:08;5.70;;;3.40;;
7027;SDS011;3555;53.248;10.336;2023-02-27T02:00:37;4.37;;;3.20;;
7027;SDS011;3555;53.248;10.336;2023-02-27T02:03:07;6.10;;;3.53;;
7027;SDS011;3555;53.248;10.336;2023-02-27T02:05:40;6.03;;;3.17;;
7027;SDS011;3555;53.248;10.336;2023-02-27T02:08:08;12.80;;;3.50;;
7027;SDS011;3555;53.248;10.336;2023-02-27T02:10:40;6.43;;;2.90;;
7027;SDS011;3555;53.248;10.336;2023-02-27T02:13:08;7.03;;;3.03;;
7027;SDS011;3555;53.248;10.336;2023-02-27T02:15:35;6.63;;;3.47;;
7027;SDS011;3555;53.248;10.336;2023-02-27T02:18:08;5.00;;;3.17;;
7027;SDS011;3555;53.248;10.336;2023-02-27T02:26:59;5.37;;;3.17;;
7027;SDS011;3555;53.248;10.336;2023-02-27T02:35:55;5.80;;;3.50;;
7027;SDS011;3555;53.248;10.336;2023-02-27T02:42:02;5.50;;;3.00;;
7027;SDS011;3555;53.248;10.336;2023-02-27T02:44:38;3.90;;;2.97;;
7027;SDS011;3555;53.248;10.336;2023-02-27T02:47:16;4.67;;;3.13;;
7027;SDS011;3555;53.248;10.336;2023-02-27T02:49:53;6.97;;;3.00;;
7027;SDS011;3555;53.248;10.336;2023-02-27T02:52:25;7.63;;;3.60;;
7027;SDS011;3555;53.248;10.336;2023-02-27T02:55:00;4.83;;;3.20;;
7027;SDS011;3555;53.248;10.336;2023-02-27T02:57:34;5.00;;;3.40;;
7027;SDS011;3555;53.248;10.336;2023-02-27T03:00:05;9.40;;;3.47;;
7027;SDS011;3555;53.248;10.336;2023-02-27T03:02:39;7.13;;;3.47;;
7027;SDS011;3555;53.248;10.336;2023-02-27T03:05:11;5.70;;;3.43;;
7027;SDS011;3555;53.248;10.336;2023-02-27T03:07:43;5.10;;;3.23;;
7027;SDS011;3555;53.248;10.336;2023-02-27T03:10:16;6.83;;;3.03;;
7027;SDS011;3555;53.248;10.336;2023-02-27T03:12:47;5.97;;;3.23;;
7027;SDS011;3555;53.248;10.336;2023-02-27T03:15:18;7.57;;;3.20;;
7027;SDS011;3555;53.248;10.336;2023-02-27T03:17:49;6.37;;;3.60;;
7027;SDS011;3555;53.248;10.336;2023-02-27T03:20:23;4.47;;;2.93;;
7027;SDS011;3555;53.248;10.336;2023-02-27T03:22:51;6.80;;;3.27;;
7027;SDS011;3555;53.248;10.336;2023-02-27T03:25:22;4.80;;;3.40;;
7027;SDS011;3555;53.248;10.336;2023-02-27T03:27:52;5.83;;;3.43;;
7027;SDS011;3555;53.248;10.336;2023-02-27T03:30:22;4.83;;;2.87;;
7027;SDS011;3555;53.248;10.336;2023-02-27T03:32:54;6.63;;;3.10;;
7027;SDS011;3555;53.248;10.336;2023-02-27T03:35:29;5.90;;;3.27;;
7027;SDS011;3555;53.248;10.336;2023-02-27T03:38:05;6.10;;;3.10;;
7027;SDS011;3555;53.248;10.336;2023-02-27T03:40:46;6.10;;;3.47;;
7027;SDS011;3555;53.248;10.336;2023-02-27T03:43:20;5.43;;;3.33;;
7027;SDS011;3555;53.248;10.336;2023-02-27T03:45:55;4.87;;;2.87;;
7027;SDS011;3555;53.248;10.336;2023-02-27T03:48:28;6.17;;;3.17;;
7027;SDS011;3555;53.248;10.336;2023-02-27T03:50:55;4.33;;;3.00;;
7027;SDS011;3555;53.248;10.336;2023-02-27T03:53:24;7.00;;;3.30;;
7027;SDS011;3555;53.248;10.336;2023-02-27T03:56:00;8.03;;;3.47;;
7027;SDS011;3555;53.248;10.336;2023-02-27T03:58:30;8.07;;;3.90;;
7027;SDS011;3555;53.248;10.336;2023-02-27T04:00:57;5.50;;;3.50;;
7027;SDS011;3555;53.248;10.336;2023-02-27T04:03:24;4.43;;;3.07;;
7027;SDS011;3555;53.248;10.336;2023-02-27T04:05:52;6.93;;;3.90;;
7027;SDS011;3555;53.248;10.336;2023-02-27T04:08:31;4.43;;;3.53;;
7027;SDS011;3555;53.248;10.336;2023-02-27T04:11:11;5.40;;;3.40;;
7027;SDS011;3555;53.248;10.336;2023-02-27T04:14:01;7.10;;;4.00;;
7027;SDS011;3555;53.248;10.336;2023-02-27T04:16:52;4.67;;;3.40;;
7027;SDS011;3555;53.248;10.336;2023-02-27T04:19:34;9.10;;;3.63;;
7027;SDS011;3555;53.248;10.336;2023-02-27T04:22:13;7.70;;;3.87;;
7027;SDS011;3555;53.248;10.336;2023-02-27T04:24:53;5.83;;;3.50;;
7027;SDS011;3555;53.248;10.336;2023-02-27T04:27:30;5.67;;;3.47;;
7027;SDS011;3555;53.248;10.336;2023-02-27T04:30:06;6.93;;;3.33;;
7027;SDS011;3555;53.248;10.336;2023-02-27T04:32:41;8.23;;;3.30;;
7027;SDS011;3555;53.248;10.336;2023-02-27T04:35:16;8.03;;;3.37;;
7027;SDS011;3555;53.248;10.336;2023-02-27T04:37:47;6.20;;;3.17;;
7027;SDS011;3555;53.248;10.336;2023-02-27T04:40:20;5.97;;;2.97;;
7027;SDS011;3555;53.248;10.336;2023-02-27T04:42:54;5.13;;;3.73;;
7027;SDS011;3555;53.248;10.336;2023-02-27T04:45:24;6.90;;;3.70;;
7027;SDS011;3555;53.248;10.336;2023-02-27T04:47:54;4.43;;;3.17;;
7027;SDS011;3555;53.248;10.336;2023-02-27T04:50:26;5.50;;;3.57;;
7027;SDS011;3555;53.248;10.336;2023-02-27T04:52:59;6.70;;;3.60;;
7027;SDS011;3555;53.248;10.336;2023-02-27T04:55:32;4.73;;;3.23;;
7027;SDS011;3555;53.248;10.336;2023-02-27T04:58:06;5.30;;;3.33;;
7027;SDS011;3555;53.248;10.336;2023-02-27T05:00:36;6.37;;;3.70;;
7027;SDS011;3555;53.248;10.336;2023-02-27T05:03:06;7.40;;;3.83;;
7027;SDS011;3555;53.248;10.336;2023-02-27T05:05:38;5.13;;;3.43;;
7027;SDS011;3555;53.248;10.336;2023-02-27T05:08:08;5.33;;;3.60;;
7027;SDS011;3555;53.248;10.336;2023-02-27T05:10:42;7.67;;;3.73;;
7027;SDS011;3555;53.248;10.336;2023-02-27T05:13:15;5.90;;;3.20;;
7027;SDS011;3555;53.248;10.336;2023-02-27T05:15:45;4.07;;;3.40;;
7027;SDS011;3555;53.248;10.336;2023-02-27T05:18:16;8.20;;;4.17;;
7027;SDS011;3555;53.248;10.336;2023-02-27T05:20:48;5.87;;;4.30;;
7027;SDS011;3555;53.248;10.336;2023-02-27T05:23:22;7.50;;;4.87;;
7027;SDS011;3555;53.248;10.336;2023-02-27T05:25:57;8.50;;;3.87;;
7027;SDS011;3555;53.248;10.336;2023-02-27T05:28:32;9.57;;;3.83;;
7027;SDS011;3555;53.248;10.336;2023-02-27T05:31:03;5.77;;;3.57;;
7027;SDS011;3555;53.248;10.336;2023-02-27T05:33:35;7.43;;;3.70;;
7027;SDS011;3555;53.248;10.336;2023-02-27T05:36:09;6.70;;;3.47;;
7027;SDS011;3555;53.248;10.336;2023-02-27T05:38:41;7.40;;;4.10;;
7027;SDS011;3555;53.248;10.336;2023-02-27T05:41:11;5.27;;;3.50;;
7027;SDS011;3555;53.248;10.336;2023-02-27T05:43:45;8.27;;;3.53;;
7027;SDS011;3555;53.248;10.336;2023-02-27T05:46:18;5.17;;;3.23;;
7027;SDS011;3555;53.248;10.336;2023-02-27T05:48:49;7.63;;;3.60;;
7027;SDS011;3555;53.248;10.336;2023-02-27T05:51:19;5.40;;;3.37;;
7027;SDS011;3555;53.248;10.336;2023-02-27T05:53:49;6.77;;;3.80;;
7027;SDS011;3555;53.248;10.336;2023-02-27T05:56:20;7.33;;;3.93;;
7027;SDS011;3555;53.248;10.336;2023-02-27T05:58:53;5.00;;;4.00;;
7027;SDS011;3555;53.248;10.336;2023-02-27T06:01:24;4.50;;;3.67;;
7027;SDS011;3555;53.248;10.336;2023-02-27T06:03:51;5.40;;;3.77;;
7027;SDS011;3555;53.248;10.336;2023-02-27T06:06:18;7.27;;;4.40;;
7027;SDS011;3555;53.248;10.336;2023-02-27T06:08:45;6.23;;;3.87;;
7027;SDS011;3555;53.248;10.336;2023-02-27T06:11:12;7.43;;;3.97;;
7027;SDS011;3555;53.248;10.336;2023-02-27T06:13:39;8.90;;;4.30;;
7027;SDS011;3555;53.248;10.336;2023-02-27T06:16:07;6.13;;;4.00;;
7027;SDS011;3555;53.248;10.336;2023-02-27T06:18:35;6.20;;;3.93;;
7027;SDS011;3555;53.248;10.336;2023-02-27T06:21:02;6.13;;;3.93;;
7027;SDS011;3555;53.248;10.336;2023-02-27T06:23:30;5.93;;;3.80;;
7027;SDS011;3555;53.248;10.336;2023-02-27T06:25:57;4.93;;;3.73;;
7027;SDS011;3555;53.248;10.336;2023-02-27T06:28:24;5.47;;;3.93;;
7027;SDS011;3555;53.248;10.336;2023-02-27T06:30:51;4.47;;;3.63;;
7027;SDS011;3555;53.248;10.336;2023-02-27T06:33:20;7.10;;;3.83;;
7027;SDS011;3555;53.248;10.336;2023-02-27T06:35:47;7.97;;;4.13;;
7027;SDS011;3555;53.248;10.336;2023-02-27T06:38:14;8.63;;;4.17;;
7027;SDS011;3555;53.248;10.336;2023-02-27T06:40:41;6.77;;;4.00;;
7027;SDS011;3555;53.248;10.336;2023-02-27T06:43:08;5.67;;;3.93;;
7027;SDS011;3555;53.248;10.336;2023-02-27T06:45:35;10.20;;;4.07;;
7027;SDS011;3555;53.248;10.336;2023-02-27T06:48:02;8.60;;;4.50;;
7027;SDS011;3555;53.248;10.336;2023-02-27T06:50:31;7.47;;;3.93;;
7027;SDS011;3555;53.248;10.336;2023-02-27T06:52:58;5.10;;;3.97;;
7027;SDS011;3555;53.248;10.336;2023-02-27T06:55:24;10.20;;;4.50;;
7027;SDS011;3555;53.248;10.336;2023-02-27T06:57:51;8.97;;;3.90;;
7027;SDS011;3555;53.248;10.336;2023-02-27T07:00:18;6.07;;;4.20;;
7027;SDS011;3555;53.248;10.336;2023-02-27T07:02:46;4.97;;;3.83;;
7027;SDS011;3555;53.248;10.336;2023-02-27T07:05:12;5.73;;;3.73;;
7027;SDS011;3555;53.248;10.336;2023-02-27T07:07:41;8.37;;;4.33;;
7027;SDS011;3555;53.248;10.336;2023-02-27T07:10:08;5.13;;;3.73;;
7027;SDS011;3555;53.248;10.336;2023-02-27T07:12:37;7.10;;;4.67;;
7027;SDS011;3555;53.248;10.336;2023-02-27T07:15:05;6.20;;;4.40;;
7027;SDS011;3555;53.248;10.336;2023-02-27T07:17:35;8.83;;;4.70;;
7027;SDS011;3555;53.248;10.336;2023-02-27T07:20:02;7.17;;;3.90;;
7027;SDS011;3555;53.248;10.336;2023-02-27T07:22:30;6.83;;;4.90;;
7027;SDS011;3555;53.248;10.336;2023-02-27T07:24:58;6.23;;;4.10;;
7027;SDS011;3555;53.248;10.336;2023-02-27T07:27:25;8.87;;;3.83;;
7027;SDS011;3555;53.248;10.336;2023-02-27T07:29:52;4.73;;;4.00;;
7027;SDS011;3555;53.248;10.336;2023-02-27T07:32:19;6.57;;;4.23;;
7027;SDS011;3555;53.248;10.336;2023-02-27T07:34:46;5.87;;;4.13;;
7027;SDS011;3555;53.248;10.336;2023-02-27T07:37:13;7.70;;;4.00;;
7027;SDS011;3555;53.248;10.336;2023-02-27T07:39:39;7.27;;;4.37;;
7027;SDS011;3555;53.248;10.336;2023-02-27T07:42:08;7.83;;;4.10;;
7027;SDS011;3555;53.248;10.336;2023-02-27T07:44:35;5.90;;;4.33;;
7027;SDS011;3555;53.248;10.336;2023-02-27T07:47:02;7.53;;;4.03;;
7027;SDS011;3555;53.248;10.336;2023-02-27T07:49:29;7.47;;;4.10;;
7027;SDS011;3555;53.248;10.336;2023-02-27T07:51:56;5.83;;;3.80;;
7027;SDS011;3555;53.248;10.336;2023-02-27T07:54:22;7.90;;;4.13;;
7027;SDS011;3555;53.248;10.336;2023-02-27T07:56:49;7.27;;;3.90;;
7027;SDS011;3555;53.248;10.336;2023-02-27T07:59:17;10.87;;;3.90;;
7027;SDS011;3555;53.248;10.336;2023-02-27T08:01:44;7.73;;;4.23;;
7027;SDS011;3555;53.248;10.336;2023-02-27T08:04:11;6.67;;;3.37;;
7027;SDS011;3555;53.248;10.336;2023-02-27T08:06:38;8.20;;;3.50;;
7027;SDS011;3555;53.248;10.336;2023-02-27T08:09:05;8.30;;;3.90;;
7027;SDS011;3555;53.248;10.336;2023-02-27T08:11:32;8.90;;;3.33;;
7027;SDS011;3555;53.248;10.336;2023-02-27T08:13:59;5.67;;;3.63;;
7027;SDS011;3555;53.248;10.336;2023-02-27T08:16:27;6.80;;;3.60;;
7027;SDS011;3555;53.248;10.336;2023-02-27T08:18:55;5.60;;;3.30;;
7027;SDS011;3555;53.248;10.336;2023-02-27T08:21:22;6.83;;;3.40;;
7027;SDS011;3555;53.248;10.336;2023-02-27T08:23:49;7.70;;;3.67;;
7027;SDS011;3555;53.248;10.336;2023-02-27T08:26:15;5.77;;;3.93;;
7027;SDS011;3555;53.248;10.336;2023-02-27T08:28:42;9.33;;;4.20;;
7027;SDS011;3555;53.248;10.336;2023-02-27T08:31:09;6.83;;;3.90;;
7027;SDS011;3555;53.248;10.336;2023-02-27T08:33:37;8.47;;;5.27;;
7027;SDS011;3555;53.248;10.336;2023-02-27T08:36:05;6.63;;;4.20;;
7027;SDS011;3555;53.248;10.336;2023-02-27T08:38:32;8.13;;;3.93;;
7027;SDS011;3555;53.248;10.336;2023-02-27T08:40:59;5.27;;;3.60;;
7027;SDS011;3555;53.248;10.336;2023-02-27T08:43:26;8.57;;;3.80;;
7027;SDS011;3555;53.248;10.336;2023-02-27T08:45:53;5.93;;;3.57;;
7027;SDS011;3555;53.248;10.336;2023-02-27T08:48:19;9.70;;;4.57;;
7027;SDS011;3555;53.248;10.336;2023-02-27T08:50:50;7.67;;;4.00;;
7027;SDS011;3555;53.248;10.336;2023-02-27T08:53:17;9.37;;;4.20;;
7027;SDS011;3555;53.248;10.336;2023-02-27T08:55:47;7.60;;;3.40;;
7027;SDS011;3555;53.248;10.336;2023-02-27T08:58:14;7.27;;;3.50;;
7027;SDS011;3555;53.248;10.336;2023-02-27T09:00:41;10.13;;;4.53;;
7027;SDS011;3555;53.248;10.336;2023-02-27T09:03:08;8.10;;;4.03;;
7027;SDS011;3555;53.248;10.336;2023-02-27T09:05:35;7.83;;;3.87;;
7027;SDS011;3555;53.248;10.336;2023-02-27T09:08:03;8.33;;;3.50;;
7027;SDS011;3555;53.248;10.336;2023-02-27T09:10:31;7.43;;;3.43;;
7027;SDS011;3555;53.248;10.336;2023-02-27T09:12:58;5.90;;;3.13;;
7027;SDS011;3555;53.248;10.336;2023-02-27T09:15:26;7.03;;;3.80;;
7027;SDS011;3555;53.248;10.336;2023-02-27T09:17:54;7.50;;;3.73;;
7027;SDS011;3555;53.248;10.336;2023-02-27T09:20:26;8.03;;;3.53;;
7027;SDS011;3555;53.248;10.336;2023-02-27T09:22:53;7.43;;;4.33;;
7027;SDS011;3555;53.248;10.336;2023-02-27T09:25:21;7.30;;;3.17;;
7027;SDS011;3555;53.248;10.336;2023-02-27T09:27:48;7.90;;;3.67;;
7027;SDS011;3555;53.248;10.336;2023-02-27T09:30:15;8.43;;;4.03;;
7027;SDS011;3555;53.248;10.336;2023-02-27T09:32:42;8.90;;;3.90;;
7027;SDS011;3555;53.248;10.336;2023-02-27T09:35:09;8.50;;;3.40;;
7027;SDS011;3555;53.248;10.336;2023-02-27T09:37:37;7.73;;;3.30;;
7027;SDS011;3555;53.248;10.336;2023-02-27T09:40:05;9.70;;;3.70;;
7027;SDS011;3555;53.248;10.336;2023-02-27T09:42:35;6.57;;;3.70;;
7027;SDS011;3555;53.248;10.336;2023-02-27T09:45:11;8.83;;;3.60;;
7027;SDS011;3555;53.248;10.336;2023-02-27T09:47:43;7.87;;;4.13;;
7027;SDS011;3555;53.248;10.336;2023-02-27T09:50:18;8.10;;;3.80;;
7027;SDS011;3555;53.248;10.336;2023-02-27T09:52:52;9.67;;;4.23;;
7027;SDS011;3555;53.248;10.336;2023-02-27T09:55:20;9.37;;;3.30;;
7027;SDS011;3555;53.248;10.336;2023-02-27T09:57:51;9.40;;;3.80;;
7027;SDS011;3555;53.248;10.336;2023-02-27T10:00:28;7.53;;;3.87;;
7027;SDS011;3555;53.248;10.336;2023-02-27T10:03:07;8.03;;;3.90;;
7027;SDS011;3555;53.248;10.336;2023-02-27T10:05:46;6.17;;;3.67;;
7027;SDS011;3555;53.248;10.336;2023-02-27T10:08:24;11.03;;;4.13;;
7027;SDS011;3555;53.248;10.336;2023-02-27T10:10:57;11.37;;;4.00;;
7027;SDS011;3555;53.248;10.336;2023-02-27T10:13:38;9.13;;;4.10;;
7027;SDS011;3555;53.248;10.336;2023-02-27T10:16:16;8.90;;;4.63;;
7027;SDS011;3555;53.248;10.336;2023-02-27T10:18:47;9.53;;;3.80;;
7027;SDS011;3555;53.248;10.336;2023-02-27T10:21:22;6.73;;;4.00;;
7027;SDS011;3555;53.248;10.336;2023-02-27T10:23:55;9.67;;;4.40;;
7027;SDS011;3555;53.248;10.336;2023-02-27T10:26:26;8.77;;;3.53;;
7027;SDS011;3555;53.248;10.336;2023-02-27T10:28:57;9.97;;;3.73;;
7027;SDS011;3555;53.248;10.336;2023-02-27T10:31:29;10.70;;;3.23;;
7027;SDS011;3555;53.248;10.336;2023-02-27T10:33:58;9.37;;;4.10;;
7027;SDS011;3555;53.248;10.336;2023-02-27T10:36:25;6.80;;;3.60;;
7027;SDS011;3555;53.248;10.336;2023-02-27T10:38:54;9.13;;;3.63;;
7027;SDS011;3555;53.248;10.336;2023-02-27T10:41:23;11.00;;;3.30;;
7027;SDS011;3555;53.248;10.336;2023-02-27T10:43:53;5.20;;;2.80;;
7027;SDS011;3555;53.248;10.336;2023-02-27T10:46:26;11.63;;;4.23;;
7027;SDS011;3555;53.248;10.336;2023-02-27T10:48:54;6.17;;;3.23;;
7027;SDS011;3555;53.248;10.336;2023-02-27T10:51:25;8.47;;;2.90;;
7027;SDS011;3555;53.248;10.336;2023-02-27T10:56:39;7.17;;;2.97;;
7027;SDS011;3555;53.248;10.336;2023-02-27T10:59:15;7.63;;;3.57;;
7027;SDS011;3555;53.248;10.336;2023-02-27T11:01:45;7.33;;;3.20;;
7027;SDS011;3555;53.248;10.336;2023-02-27T11:04:21;5.87;;;2.63;;
7027;SDS011;3555;53.248;10.336;2023-02-27T11:06:50;6.60;;;2.80;;
7027;SDS011;3555;53.248;10.336;2023-02-27T11:09:19;7.10;;;2.50;;
7027;SDS011;3555;53.248;10.336;2023-02-27T11:11:47;6.00;;;3.00;;
7027;SDS011;3555;53.248;10.336;2023-02-27T11:14:22;6.17;;;2.80;;
7027;SDS011;3555;53.248;10.336;2023-02-27T11:16:53;6.93;;;2.70;;
7027;SDS011;3555;53.248;10.336;2023-02-27T11:19:25;4.23;;;2.33;;
7027;SDS011;3555;53.248;10.336;2023-02-27T11:21:58;7.00;;;2.37;;
7027;SDS011;3555;53.248;10.336;2023-02-27T11:24:26;5.07;;;2.80;;
7027;SDS011;3555;53.248;10.336;2023-02-27T11:26:55;6.17;;;2.60;;
7027;SDS011;3555;53.248;10.336;2023-02-27T11:29:24;6.13;;;2.70;;
7027;SDS011;3555;53.248;10.336;2023-02-27T11:31:53;4.70;;;2.50;;
7027;SDS011;3555;53.248;10.336;2023-02-27T11:34:24;3.73;;;1.80;;
7027;SDS011;3555;53.248;10.336;2023-02-27T11:36:54;3.30;;;1.93;;
7027;SDS011;3555;53.248;10.336;2023-02-27T11:39:34;4.63;;;2.20;;
7027;SDS011;3555;53.248;10.336;2023-02-27T11:42:08;5.53;;;2.30;;
7027;SDS011;3555;53.248;10.336;2023-02-27T11:44:51;5.33;;;2.20;;
7027;SDS011;3555;53.248;10.336;2023-02-27T11:47:22;4.47;;;2.37;;
7027;SDS011;3555;53.248;10.336;2023-02-27T11:52:57;7.17;;;2.40;;
7027;SDS011;3555;53.248;10.336;2023-02-27T11:55:33;5.93;;;2.10;;
7027;SDS011;3555;53.248;10.336;2023-02-27T11:58:03;6.00;;;2.40;;
7027;SDS011;3555;53.248;10.336;2023-02-27T12:00:40;5.70;;;1.90;;
7027;SDS011;3555;53.248;10.336;2023-02-27T12:03:12;5.17;;;2.00;;
7027;SDS011;3555;53.248;10.336;2023-02-27T12:05:44;3.73;;;1.93;;
7027;SDS011;3555;53.248;10.336;2023-02-27T12:08:15;2.83;;;1.83;;
7027;SDS011;3555;53.248;10.336;2023-02-27T12:10:47;2.07;;;1.30;;
7027;SDS011;3555;53.248;10.336;2023-02-27T12:13:18;4.10;;;1.10;;
7027;SDS011;3555;53.248;10.336;2023-02-27T12:15:51;3.30;;;1.47;;
7027;SDS011;3555;53.248;10.336;2023-02-27T12:18:24;3.43;;;1.50;;
7027;SDS011;3555;53.248;10.336;2023-02-27T12:20:56;2.27;;;1.43;;
7027;SDS011;3555;53.248;10.336;2023-02-27T12:23:27;3.87;;;1.63;;
7027;SDS011;3555;53.248;10.336;2023-02-27T12:26:00;4.30;;;1.80;;
7027;SDS011;3555;53.248;10.336;2023-02-27T12:28:35;4.27;;;1.40;;
7027;SDS011;3555;53.248;10.336;2023-02-27T12:31:21;2.10;;;1.40;;
7027;SDS011;3555;53.248;10.336;2023-02-27T12:34:08;3.47;;;1.40;;
7027;SDS011;3555;53.248;10.336;2023-02-27T12:36:42;4.13;;;1.50;;
7027;SDS011;3555;53.248;10.336;2023-02-27T12:39:12;4.70;;;1.50;;
7027;SDS011;3555;53.248;10.336;2023-02-27T12:41:45;4.33;;;1.80;;
7027;SDS011;3555;53.248;10.336;2023-02-27T12:44:45;3.43;;;2.03;;
7027;SDS011;3555;53.248;10.336;2023-02-27T12:47:31;3.33;;;1.67;;
7027;SDS011;3555;53.248;10.336;2023-02-27T12:50:08;2.17;;;1.30;;
7027;SDS011;3555;53.248;10.336;2023-02-27T12:52:40;2.03;;;1.20;;
7027;SDS011;3555;53.248;10.336;2023-02-27T12:55:15;3.97;;;1.50;;
7027;SDS011;3555;53.248;10.336;2023-02-27T12:58:08;3.20;;;1.57;;
7027;SDS011;3555;53.248;10.336;2023-02-27T13:00:45;3.77;;;1.57;;
7027;SDS011;3555;53.248;10.336;2023-02-27T13:03:19;3.13;;;1.33;;
7027;SDS011;3555;53.248;10.336;2023-02-27T13:05:53;4.80;;;1.90;;
7027;SDS011;3555;53.248;10.336;2023-02-27T13:08:51;4.33;;;1.60;;
7027;SDS011;3555;53.248;10.336;2023-02-27T13:11:30;3.33;;;1.53;;
7027;SDS011;3555;53.248;10.336;2023-02-27T13:14:06;2.73;;;1.37;;
7027;SDS011;3555;53.248;10.336;2023-02-27T13:16:39;5.07;;;1.67;;
7027;SDS011;3555;53.248;10.336;2023-02-27T13:19:12;3.07;;;1.77;;
7027;SDS011;3555;53.248;10.336;2023-02-27T13:21:42;4.37;;;1.90;;
7027;SDS011;3555;53.248;10.336;2023-02-27T13:24:21;4.67;;;1.83;;
7027;SDS011;3555;53.248;10.336;2023-02-27T13:26:52;5.33;;;1.70;;
7027;SDS011;3555;53.248;10.336;2023-02-27T13:29:24;5.57;;;1.73;;
7027;SDS011;3555;53.248;10.336;2023-02-27T13:31:59;5.67;;;1.83;;
7027;SDS011;3555;53.248;10.336;2023-02-27T13:34:36;3.30;;;1.70;;
7027;SDS011;3555;53.248;10.336;2023-02-27T13:37:07;4.97;;;2.00;;
7027;SDS011;3555;53.248;10.336;2023-02-27T13:39:51;4.73;;;1.80;;
7027;SDS011;3555;53.248;10.336;2023-02-27T13:51:06;3.57;;;1.70;;
7027;SDS011;3555;53.248;10.336;2023-02-27T13:53:36;5.47;;;1.50;;
7027;SDS011;3555;53.248;10.336;2023-02-27T13:56:19;3.07;;;1.50;;
7027;SDS011;3555;53.248;10.336;2023-02-27T13:58:47;5.20;;;1.80;;
7027;SDS011;3555;53.248;10.336;2023-02-27T14:01:16;2.63;;;1.57;;
7027;SDS011;3555;53.248;10.336;2023-02-27T14:03:53;4.53;;;1.73;;
7027;SDS011;3555;53.248;10.336;2023-02-27T14:06:24;3.73;;;1.73;;
7027;SDS011;3555;53.248;10.336;2023-02-27T14:08:52;3.37;;;1.67;;
7027;SDS011;3555;53.248;10.336;2023-02-27T14:11:22;2.90;;;1.57;;
7027;SDS011;3555;53.248;10.336;2023-02-27T14:14:02;3.20;;;1.77;;
7027;SDS011;3555;53.248;10.336;2023-02-27T14:16:52;4.83;;;1.80;;
7027;SDS011;3555;53.248;10.336;2023-02-27T14:19:36;2.40;;;1.60;;
7027;SDS011;3555;53.248;10.336;2023-02-27T14:25:30;4.33;;;1.80;;
7027;SDS011;3555;53.248;10.336;2023-02-27T14:27:59;4.30;;;1.60;;
7027;SDS011;3555;53.248;10.336;2023-02-27T14:30:31;4.03;;;1.63;;
7027;SDS011;3555;53.248;10.336;2023-02-27T14:33:12;1.90;;;1.40;;
7027;SDS011;3555;53.248;10.336;2023-02-27T14:35:53;2.47;;;1.67;;
7027;SDS011;3555;53.248;10.336;2023-02-27T14:38:26;4.27;;;1.70;;
7027;SDS011;3555;53.248;10.336;2023-02-27T14:43:48;3.40;;;1.40;;
7027;SDS011;3555;53.248;10.336;2023-02-27T14:46:22;5.17;;;1.47;;
7027;SDS011;3555;53.248;10.336;2023-02-27T14:48:51;4.20;;;1.80;;
7027;SDS011;3555;53.248;10.336;2023-02-27T14:51:20;2.40;;;1.33;;
7027;SDS011;3555;53.248;10.336;2023-02-27T14:53:59;3.33;;;1.43;;
7027;SDS011;3555;53.248;10.336;2023-02-27T14:56:27;4.13;;;1.63;;
7027;SDS011;3555;53.248;10.336;2023-02-27T14:58:54;3.83;;;1.33;;
7027;SDS011;3555;53.248;10.336;2023-02-27T15:01:23;3.53;;;1.30;;
7027;SDS011;3555;53.248;10.336;2023-02-27T15:03:51;5.13;;;1.40;;
7027;SDS011;3555;53.248;10.336;2023-02-27T15:06:20;2.90;;;1.30;;
7027;SDS011;3555;53.248;10.336;2023-02-27T15:08:51;2.37;;;1.40;;
7027;SDS011;3555;53.248;10.336;2023-02-27T15:11:22;5.97;;;1.63;;
7027;SDS011;3555;53.248;10.336;2023-02-27T15:13:52;4.27;;;1.50;;
7027;SDS011;3555;53.248;10.336;2023-02-27T15:16:30;3.30;;;1.20;;
7027;SDS011;3555;53.248;10.336;2023-02-27T15:19:01;3.83;;;1.47;;
7027;SDS011;3555;53.248;10.336;2023-02-27T15:21:40;2.33;;;1.43;;
7027;SDS011;3555;53.248;10.336;2023-02-27T15:24:16;3.37;;;1.50;;
7027;SDS011;3555;53.248;10.336;2023-02-27T15:26:50;2.83;;;1.50;;
7027;SDS011;3555;53.248;10.336;2023-02-27T15:29:20;3.47;;;1.70;;
7027;SDS011;3555;53.248;10.336;2023-02-27T15:31:48;2.43;;;1.20;;
7027;SDS011;3555;53.248;10.336;2023-02-27T15:34:15;2.73;;;1.40;;
7027;SDS011;3555;53.248;10.336;2023-02-27T15:36:45;4.67;;;1.80;;
7027;SDS011;3555;53.248;10.336;2023-02-27T15:39:14;3.53;;;1.70;;
7027;SDS011;3555;53.248;10.336;2023-02-27T15:41:48;3.63;;;1.60;;
7027;SDS011;3555;53.248;10.336;2023-02-27T15:44:19;4.03;;;1.60;;
7027;SDS011;3555;53.248;10.336;2023-02-27T15:46:51;5.23;;;1.63;;
7027;SDS011;3555;53.248;10.336;2023-02-27T15:49:19;2.07;;;1.50;;
7027;SDS011;3555;53.248;10.336;2023-02-27T15:51:53;4.67;;;1.53;;
7027;SDS011;3555;53.248;10.336;2023-02-27T15:54:24;3.57;;;1.60;;
7027;SDS011;3555;53.248;10.336;2023-02-27T15:56:52;2.90;;;1.60;;
7027;SDS011;3555;53.248;10.336;2023-02-27T15:59:20;3.00;;;1.60;;
7027;SDS011;3555;53.248;10.336;2023-02-27T16:01:47;3.87;;;1.50;;